Time;durP1;ratioP1;P1;durP2;ratioP2;P2;SDS_P1;SDS_P2;PMS_P1;PMS_P2;Temp;Humidity;BMP_temperature;BMP_pressure;BME280_temperature;BME280_humidity;BME280_pressure;Samples;Min_cycle;Max_cycle;Signal;HPM_P1;HPM_P2
2021/12/01 00:02:12;;;;;;;54.60;19.88;;;7.40;99.90;;;;;;5069759;28;20416;-72
2021/12/01 00:04:38;;;;;;;52.50;19.27;;;7.40;99.90;;;;;;5070487;28;20407;-72
2021/12/01 00:07:07;;;;;;;60.72;20.13;;;7.50;99.90;;;;;;5089098;28;20406;-72
2021/12/01 00:09:33;;;;;;;55.22;18.70;;;7.50;99.90;;;;;;5072728;28;20528;-72
2021/12/01 00:11:58;;;;;;;48.28;18.23;;;7.50;99.90;;;;;;5072439;28;20430;-72
2021/12/01 00:14:24;;;;;;;43.07;15.90;;;7.60;99.90;;;;;;5090908;28;20429;-73
2021/12/01 00:16:50;;;;;;;46.13;16.55;;;7.60;99.90;;;;;;5055687;28;20420;-72
2021/12/01 00:19:16;;;;;;;54.65;18.02;;;7.60;99.90;;;;;;5072360;28;20406;-73
2021/12/01 00:21:41;;;;;;;49.60;16.47;;;7.70;99.90;;;;;;5090354;28;20450;-72
2021/12/01 00:24:07;;;;;;;43.80;15.80;;;7.70;99.90;;;;;;5055894;28;20410;-72
2021/12/01 00:26:33;;;;;;;44.38;15.82;;;7.70;99.90;;;;;;5072269;28;20414;-72
2021/12/01 00:28:59;;;;;;;46.15;16.85;;;7.80;99.90;;;;;;5072177;28;20928;-72
2021/12/01 00:31:24;;;;;;;48.57;17.13;;;7.80;99.90;;;;;;5090435;28;20406;-73
2021/12/01 00:33:51;;;;;;;54.40;17.80;;;7.90;99.90;;;;;;5071983;28;20414;-72
2021/12/01 00:36:16;;;;;;;61.58;19.67;;;7.90;99.90;;;;;;5055645;28;20499;-72
2021/12/01 00:38:43;;;;;;;51.73;19.20;;;7.90;99.90;;;;;;5071995;28;20440;-72
2021/12/01 00:41:10;;;;;;;61.88;20.40;;;7.90;99.90;;;;;;5073407;28;20403;-72
2021/12/01 00:43:39;;;;;;;56.00;17.15;;;7.90;99.90;;;;;;5070773;28;20051;-73
2021/12/01 00:46:12;;;;;;;44.20;14.88;;;8.00;99.90;;;;;;5053292;28;20044;-73
2021/12/01 00:48:38;;;;;;;54.13;16.50;;;8.00;99.90;;;;;;5053182;28;20055;-72
2021/12/01 00:51:04;;;;;;;45.10;15.13;;;8.10;99.90;;;;;;5071326;28;20044;-73
2021/12/01 00:53:30;;;;;;;46.55;15.30;;;8.20;99.90;;;;;;5036039;28;20055;-73
2021/12/01 00:55:56;;;;;;;41.83;17.40;;;8.20;99.90;;;;;;5070964;28;20670;-73
2021/12/01 00:58:22;;;;;;;40.30;17.90;;;8.30;99.90;;;;;;5071357;28;20053;-73
2021/12/01 01:00:49;;;;;;;41.50;18.40;;;8.40;99.90;;;;;;5053251;28;20425;-73
2021/12/01 01:03:15;;;;;;;50.35;21.38;;;8.50;99.90;;;;;;5052977;28;20182;-72
2021/12/01 01:05:42;;;;;;;48.22;21.92;;;8.60;99.90;;;;;;5036184;28;20060;-73
2021/12/01 01:08:08;;;;;;;56.70;24.38;;;8.60;99.90;;;;;;5053200;28;20113;-72
2021/12/01 01:18:37;;;;;;;63.55;28.35;;;8.80;99.90;;;;;;5052779;28;20056;-73
2021/12/01 01:21:05;;;;;;;54.97;28.42;;;8.80;99.90;;;;;;5052484;28;20612;-73
2021/12/01 01:23:31;;;;;;;60.15;34.90;;;8.90;99.90;;;;;;5051166;28;20400;-73
2021/12/01 01:25:58;;;;;;;51.97;33.58;;;8.90;99.90;;;;;;5069189;28;20395;-73
2021/12/01 01:28:24;;;;;;;58.05;34.53;;;8.90;99.90;;;;;;5051179;28;20407;-74
2021/12/01 01:30:52;;;;;;;49.67;31.65;;;8.90;99.90;;;;;;5069036;28;20600;-73
2021/12/01 01:33:18;;;;;;;55.60;34.70;;;9.00;99.90;;;;;;5050925;28;20514;-73
2021/12/01 01:35:44;;;;;;;42.47;29.75;;;9.00;99.90;;;;;;5051118;28;20446;-73
2021/12/01 01:38:09;;;;;;;44.65;29.63;;;9.00;99.90;;;;;;5051042;28;20404;-73
2021/12/01 01:40:37;;;;;;;49.40;30.43;;;9.00;99.90;;;;;;5062289;28;20412;-73
2021/12/01 01:43:03;;;;;;;42.97;29.67;;;9.00;99.90;;;;;;5070397;28;20406;-73
2021/12/01 01:45:29;;;;;;;39.72;27.67;;;9.00;99.90;;;;;;5071336;28;20494;-73
2021/12/01 01:48:04;;;;;;;40.47;28.42;;;9.10;99.90;;;;;;5070480;28;20434;-74
2021/12/01 01:50:36;;;;;;;38.95;27.50;;;9.10;99.90;;;;;;5054091;28;20406;-73
2021/12/01 01:53:04;;;;;;;41.72;26.25;;;9.10;99.90;;;;;;5070938;28;20907;-73
2021/12/01 01:55:30;;;;;;;41.50;25.73;;;9.10;99.90;;;;;;5053933;28;20928;-73
2021/12/01 01:57:56;;;;;;;39.38;25.67;;;9.10;99.90;;;;;;5071025;28;20399;-73
2021/12/01 02:00:22;;;;;;;31.42;23.98;;;9.10;99.90;;;;;;5070729;28;20390;-73
2021/12/01 02:02:48;;;;;;;34.90;23.23;;;9.20;99.90;;;;;;5070491;28;20406;-73
2021/12/01 02:05:14;;;;;;;34.93;21.47;;;9.10;99.90;;;;;;5070187;28;21959;-73
2021/12/01 02:07:40;;;;;;;31.33;19.77;;;9.20;99.90;;;;;;5088872;28;20402;-73
2021/12/01 02:10:06;;;;;;;29.33;19.88;;;9.30;99.90;;;;;;5070648;28;20469;-73
2021/12/01 02:12:32;;;;;;;29.42;19.10;;;9.30;99.90;;;;;;5088520;28;20406;-73
2021/12/01 02:14:57;;;;;;;28.15;17.42;;;9.30;99.90;;;;;;5054134;28;20410;-73
2021/12/01 02:17:23;;;;;;;29.90;16.63;;;9.30;99.90;;;;;;5070961;28;20402;-73
2021/12/01 02:19:52;;;;;;;26.42;15.35;;;9.40;99.90;;;;;;5069862;28;20404;-73
2021/12/01 02:22:18;;;;;;;18.40;12.52;;;9.40;99.90;;;;;;5070615;28;20907;-73
2021/12/01 02:24:47;;;;;;;19.67;13.00;;;9.40;99.90;;;;;;5070576;28;20406;-73
2021/12/01 02:27:13;;;;;;;18.85;12.60;;;9.50;99.90;;;;;;5088411;28;20447;-73
2021/12/01 02:29:39;;;;;;;20.38;11.75;;;9.50;99.90;;;;;;5070329;28;20412;-73
2021/12/01 02:32:05;;;;;;;17.53;10.63;;;9.50;99.90;;;;;;5070173;28;20406;-73
2021/12/01 02:34:34;;;;;;;19.02;10.32;;;9.40;99.90;;;;;;5070120;28;20441;-73
2021/12/01 02:37:00;;;;;;;16.73;10.15;;;9.40;99.90;;;;;;5070331;28;20406;-74
2021/12/01 02:39:27;;;;;;;16.87;9.10;;;9.50;99.90;;;;;;5070531;28;20409;-74
2021/12/01 02:41:59;;;;;;;16.88;7.97;;;9.50;99.90;;;;;;5065682;28;20752;-73
2021/12/01 02:44:26;;;;;;;17.88;7.35;;;9.50;99.90;;;;;;5066771;28;20407;-73
2021/12/01 02:46:52;;;;;;;15.70;7.45;;;9.40;99.90;;;;;;5069028;28;20410;-73
2021/12/01 02:49:20;;;;;;;13.40;6.45;;;9.50;99.90;;;;;;5069421;28;20495;-73
2021/12/01 02:51:48;;;;;;;12.32;5.38;;;9.50;99.90;;;;;;5069080;28;20453;-73
2021/12/01 02:54:14;;;;;;;13.43;5.70;;;9.50;99.90;;;;;;5052487;28;20516;-73
2021/12/01 02:56:45;;;;;;;10.83;5.90;;;9.50;99.90;;;;;;5069108;28;20500;-73
2021/12/01 02:59:11;;;;;;;11.67;5.23;;;9.40;99.90;;;;;;5051509;28;20435;-73
2021/12/01 03:01:36;;;;;;;9.38;4.13;;;9.40;99.90;;;;;;5049298;28;20882;-73
2021/12/01 03:04:02;;;;;;;9.45;4.53;;;9.40;99.90;;;;;;5049287;28;20408;-73
2021/12/01 03:06:28;;;;;;;7.77;3.30;;;9.40;99.90;;;;;;5032248;28;20411;-73
2021/12/01 03:08:55;;;;;;;6.90;3.08;;;9.40;99.90;;;;;;5049128;28;20824;-74
2021/12/01 03:11:21;;;;;;;6.00;2.95;;;9.40;99.90;;;;;;5049491;28;20771;-73
2021/12/01 03:13:47;;;;;;;4.63;2.67;;;9.40;99.90;;;;;;5053312;28;20407;-74
2021/12/01 03:16:15;;;;;;;5.07;2.65;;;9.40;99.90;;;;;;5053942;28;20807;-74
2021/12/01 03:18:40;;;;;;;5.10;1.80;;;9.40;99.90;;;;;;5072360;28;20512;-74
2021/12/01 03:21:06;;;;;;;4.60;1.67;;;9.40;99.90;;;;;;5073154;28;20505;-74
2021/12/01 03:23:32;;;;;;;3.87;1.63;;;9.40;99.90;;;;;;5072997;28;20410;-74
2021/12/01 03:25:58;;;;;;;3.03;1.33;;;9.40;99.90;;;;;;5072971;28;20414;-74
2021/12/01 03:28:23;;;;;;;4.75;1.42;;;9.50;99.90;;;;;;5072978;28;20492;-74
2021/12/01 03:30:49;;;;;;;4.93;1.53;;;9.50;99.90;;;;;;5090700;28;20513;-74
2021/12/01 03:33:18;;;;;;;4.03;1.63;;;9.50;99.90;;;;;;5072947;28;20407;-74
2021/12/01 03:35:45;;;;;;;4.90;1.58;;;9.50;99.90;;;;;;5072738;28;20426;-74
2021/12/01 03:38:12;;;;;;;5.47;1.27;;;9.50;99.90;;;;;;5090937;28;20421;-74
2021/12/01 03:40:40;;;;;;;7.20;1.30;;;9.50;99.90;;;;;;5071906;28;20417;-74
2021/12/01 03:43:05;;;;;;;7.30;1.60;;;9.60;99.90;;;;;;5072347;28;20414;-74
2021/12/01 03:45:31;;;;;;;6.57;1.40;;;9.60;99.90;;;;;;5055926;28;20424;-74
2021/12/01 03:47:57;;;;;;;5.22;1.60;;;9.60;99.90;;;;;;5090240;28;20445;-74
2021/12/01 03:50:23;;;;;;;3.55;1.00;;;9.60;99.90;;;;;;5054649;28;20403;-74
2021/12/01 03:52:49;;;;;;;5.13;1.40;;;9.60;99.90;;;;;;5052600;28;20407;-74
2021/12/01 03:55:15;;;;;;;4.93;0.90;;;9.60;99.90;;;;;;5052362;28;20801;-74
2021/12/01 03:57:40;;;;;;;5.53;1.30;;;9.60;99.90;;;;;;5052469;28;20411;-74
2021/12/01 04:00:10;;;;;;;5.65;1.30;;;9.60;99.90;;;;;;5052153;28;20406;-74
2021/12/01 04:02:36;;;;;;;9.75;1.55;;;9.60;99.90;;;;;;5052495;28;20411;-74
2021/12/01 04:05:02;;;;;;;9.05;1.67;;;9.60;99.90;;;;;;5035078;28;20425;-74
2021/12/01 04:07:28;;;;;;;11.23;1.60;;;9.60;99.90;;;;;;5033788;28;20921;-74
2021/12/01 04:09:53;;;;;;;8.80;1.60;;;9.70;99.90;;;;;;5050910;28;20400;-74
2021/12/01 04:12:19;;;;;;;10.02;1.73;;;9.70;99.90;;;;;;5050784;28;20491;-74
2021/12/01 04:14:45;;;;;;;7.93;1.57;;;9.70;99.90;;;;;;5050635;28;20427;-74
2021/12/01 04:17:10;;;;;;;6.30;1.20;;;9.70;99.90;;;;;;5050806;28;20411;-74
2021/12/01 04:19:37;;;;;;;11.73;1.77;;;9.60;99.90;;;;;;5050183;28;20416;-74
2021/12/01 04:22:03;;;;;;;13.32;2.00;;;9.60;99.90;;;;;;5068537;28;21265;-74
2021/12/01 04:24:29;;;;;;;16.67;2.60;;;9.60;99.90;;;;;;5068850;28;20406;-74
2021/12/01 04:26:55;;;;;;;14.35;2.40;;;9.60;99.90;;;;;;5050552;28;20905;-74
2021/12/01 04:29:20;;;;;;;17.67;3.05;;;9.70;99.90;;;;;;5034336;28;20400;-74
2021/12/01 04:31:46;;;;;;;16.17;2.85;;;9.60;99.90;;;;;;5050305;28;20466;-74
2021/12/01 04:34:12;;;;;;;13.97;2.23;;;9.60;99.90;;;;;;5034017;28;20511;-74
2021/12/01 04:36:41;;;;;;;16.77;2.72;;;9.60;99.90;;;;;;5050252;28;20415;-74
2021/12/01 04:39:10;;;;;;;16.35;2.90;;;9.60;99.90;;;;;;5050380;28;20939;-74
2021/12/01 04:41:40;;;;;;;16.73;3.00;;;9.60;99.90;;;;;;5050275;28;20453;-74
2021/12/01 04:44:11;;;;;;;16.23;3.25;;;9.50;99.90;;;;;;5050477;28;20797;-74
2021/12/01 04:46:43;;;;;;;14.95;2.90;;;9.50;99.90;;;;;;5068291;28;20411;-74
2021/12/01 04:49:15;;;;;;;13.73;2.65;;;9.50;99.90;;;;;;5057849;28;20401;-73
2021/12/01 04:51:42;;;;;;;9.90;1.77;;;9.50;99.90;;;;;;5070227;28;20749;-73
2021/12/01 04:54:09;;;;;;;8.05;1.98;;;9.50;99.90;;;;;;5070255;28;20414;-73
2021/12/01 04:56:36;;;;;;;7.85;1.83;;;9.50;99.90;;;;;;5070095;28;20451;-73
2021/12/01 04:59:01;;;;;;;7.97;1.88;;;9.50;99.90;;;;;;5070228;28;20402;-73
2021/12/01 05:01:27;;;;;;;7.63;1.80;;;9.50;99.90;;;;;;5070435;28;20491;-73
2021/12/01 05:03:52;;;;;;;7.50;1.87;;;9.50;99.90;;;;;;5070099;28;20934;-73
2021/12/01 05:07:33;;;;;;;5.30;1.60;;;9.50;99.90;;;;;;5166805;27;20886;-73
2021/12/01 05:09:58;;;;;;;3.75;1.48;;;9.50;99.90;;;;;;5127864;27;20394;-73
2021/12/01 05:12:24;;;;;;;5.75;1.90;;;9.50;99.90;;;;;;5127340;27;20725;-73
2021/12/01 05:14:50;;;;;;;4.93;1.87;;;9.50;99.90;;;;;;5127520;27;20425;-74
2021/12/01 05:17:19;;;;;;;5.10;2.10;;;9.50;99.90;;;;;;5127248;27;20443;-73
2021/12/01 05:19:44;;;;;;;3.70;1.65;;;9.50;99.90;;;;;;5127533;27;20489;-74
2021/12/01 05:22:10;;;;;;;3.60;1.97;;;9.50;99.90;;;;;;5110612;27;20497;-74
2021/12/01 05:24:35;;;;;;;5.40;2.58;;;9.50;99.90;;;;;;5127211;27;20413;-73
2021/12/01 05:27:02;;;;;;;4.43;1.90;;;9.50;99.90;;;;;;5127269;27;20437;-74
2021/12/01 05:29:28;;;;;;;3.85;2.10;;;9.50;99.90;;;;;;5127292;27;20405;-73
2021/12/01 05:31:56;;;;;;;3.60;1.80;;;9.50;99.90;;;;;;5127126;27;20737;-73
2021/12/01 05:34:23;;;;;;;3.90;1.75;;;9.50;99.90;;;;;;5126954;27;20398;-74
2021/12/01 05:36:50;;;;;;;2.58;1.30;;;9.50;99.90;;;;;;5126867;27;20406;-73
2021/12/01 05:39:17;;;;;;;2.80;1.60;;;9.50;99.90;;;;;;5127484;27;20417;-74
2021/12/01 05:41:43;;;;;;;2.40;1.30;;;9.40;99.90;;;;;;5127349;27;20484;-73
2021/12/01 05:44:09;;;;;;;2.13;1.13;;;9.40;99.90;;;;;;5126967;27;20394;-74
2021/12/01 05:46:35;;;;;;;3.65;1.15;;;9.40;99.90;;;;;;5127086;27;20803;-73
2021/12/01 05:49:01;;;;;;;1.90;0.90;;;9.40;99.90;;;;;;5123449;28;20757;-74
2021/12/01 05:51:26;;;;;;;1.70;0.70;;;9.40;99.90;;;;;;5123702;28;20408;-73
2021/12/01 05:53:52;;;;;;;2.50;1.10;;;9.40;99.90;;;;;;5123311;28;20497;-74
2021/12/01 05:56:18;;;;;;;1.25;0.63;;;9.40;99.90;;;;;;5123970;28;20404;-74
2021/12/01 05:58:43;;;;;;;1.80;0.90;;;9.30;99.90;;;;;;5123385;28;20531;-74
2021/12/01 06:01:09;;;;;;;2.90;0.90;;;9.40;99.90;;;;;;5106170;28;20399;-74
2021/12/01 06:03:35;;;;;;;1.77;0.80;;;9.30;99.90;;;;;;5123131;28;20396;-74
2021/12/01 06:06:00;;;;;;;2.07;0.90;;;9.30;99.90;;;;;;5115624;28;20429;-74
2021/12/01 06:08:26;;;;;;;2.42;0.88;;;9.30;99.90;;;;;;5102755;28;20930;-73
2021/12/01 06:10:52;;;;;;;1.73;0.95;;;9.30;99.90;;;;;;5102361;28;20443;-74
2021/12/01 06:13:20;;;;;;;2.67;1.10;;;9.30;99.90;;;;;;5085301;28;20405;-74
2021/12/01 06:15:48;;;;;;;3.13;1.15;;;9.30;99.90;;;;;;5085835;28;20462;-74
2021/12/01 06:18:13;;;;;;;1.90;1.15;;;9.30;99.90;;;;;;5075814;28;20409;-74
2021/12/01 06:20:39;;;;;;;2.00;1.10;;;9.30;99.90;;;;;;5071962;28;20413;-74
2021/12/01 06:23:05;;;;;;;1.77;1.03;;;9.30;99.90;;;;;;5088815;28;20451;-74
2021/12/01 06:25:31;;;;;;;1.83;1.00;;;9.20;99.90;;;;;;5088197;28;20425;-74
2021/12/01 06:27:56;;;;;;;1.70;1.00;;;9.20;99.90;;;;;;5071735;28;20400;-74
2021/12/01 06:30:25;;;;;;;2.25;1.17;;;9.20;99.90;;;;;;5088814;28;20410;-74
2021/12/01 06:32:50;;;;;;;2.13;1.23;;;9.20;99.90;;;;;;5088498;28;20408;-74
2021/12/01 06:35:17;;;;;;;1.70;0.90;;;9.20;99.90;;;;;;5071381;28;20807;-74
2021/12/01 06:37:44;;;;;;;2.65;1.30;;;9.20;99.90;;;;;;5088672;28;20416;-74
2021/12/01 06:40:10;;;;;;;1.97;1.40;;;9.20;99.90;;;;;;5088794;28;20398;-74
2021/12/01 06:42:35;;;;;;;3.50;1.50;;;9.20;99.90;;;;;;5088570;28;20493;-74
2021/12/01 06:45:07;;;;;;;2.63;1.60;;;9.10;99.90;;;;;;5071615;28;20477;-74
2021/12/01 06:47:32;;;;;;;2.00;1.50;;;9.10;99.90;;;;;;5087998;28;20584;-73
2021/12/01 06:49:59;;;;;;;2.78;1.58;;;9.10;99.90;;;;;;5074977;28;20491;-72
2021/12/01 06:52:29;;;;;;;2.47;1.30;;;9.10;99.90;;;;;;5076242;27;20403;-73
2021/12/01 06:54:56;;;;;;;2.90;2.00;;;9.10;99.90;;;;;;5090346;28;20870;-73
2021/12/01 06:57:22;;;;;;;2.33;1.98;;;9.10;99.90;;;;;;5091279;28;20444;-73
2021/12/01 06:59:48;;;;;;;2.20;1.85;;;9.10;99.90;;;;;;5090629;28;20404;-73
2021/12/01 07:02:15;;;;;;;2.20;1.73;;;9.10;99.90;;;;;;5091623;28;20396;-73
2021/12/01 07:04:41;;;;;;;2.08;1.65;;;9.00;99.90;;;;;;5091382;28;20491;-73
2021/12/01 07:07:07;;;;;;;1.90;1.60;;;9.00;99.90;;;;;;5090850;28;20561;-73
2021/12/01 07:09:32;;;;;;;1.77;1.30;;;9.00;99.90;;;;;;5091167;28;20407;-74
2021/12/01 07:11:58;;;;;;;1.85;1.13;;;9.00;99.90;;;;;;5091357;28;20408;-73
2021/12/01 07:14:24;;;;;;;1.80;1.50;;;9.00;99.90;;;;;;5074634;28;20407;-73
2021/12/01 07:16:49;;;;;;;2.10;1.23;;;9.00;99.90;;;;;;5091173;28;20400;-73
2021/12/01 07:19:15;;;;;;;2.08;1.38;;;8.90;99.90;;;;;;5074435;28;20410;-73
2021/12/01 07:21:41;;;;;;;2.10;1.60;;;8.90;99.90;;;;;;5074100;28;20914;-73
2021/12/01 07:24:07;;;;;;;2.10;1.50;;;8.90;99.90;;;;;;5090897;28;20495;-73
2021/12/01 07:26:33;;;;;;;1.70;1.40;;;8.90;99.90;;;;;;5073886;28;20435;-73
2021/12/01 07:28:59;;;;;;;2.10;1.65;;;8.90;99.90;;;;;;5090123;28;20415;-73
2021/12/01 07:31:25;;;;;;;1.45;0.95;;;8.80;99.90;;;;;;5090595;28;20407;-73
2021/12/01 07:33:51;;;;;;;1.83;1.30;;;8.80;99.90;;;;;;5090991;28;20795;-73
2021/12/01 07:36:17;;;;;;;1.77;1.10;;;8.80;99.90;;;;;;5091047;28;20487;-73
2021/12/01 07:38:43;;;;;;;2.22;1.27;;;8.80;99.90;;;;;;5074038;28;21169;-74
2021/12/01 07:41:08;;;;;;;2.47;1.50;;;8.80;99.90;;;;;;5073571;28;20409;-73
2021/12/01 07:43:34;;;;;;;2.63;1.70;;;8.80;99.90;;;;;;5090449;28;20432;-73
2021/12/01 07:46:03;;;;;;;3.08;1.58;;;8.80;99.90;;;;;;5090857;28;20964;-73
2021/12/01 07:48:29;;;;;;;4.03;1.85;;;8.80;99.90;;;;;;5090642;28;20426;-73
2021/12/01 07:50:55;;;;;;;2.95;1.70;;;8.80;99.90;;;;;;5090674;28;20904;-73
2021/12/01 07:53:22;;;;;;;2.90;1.67;;;8.80;99.90;;;;;;5090542;28;20416;-73
2021/12/01 07:55:48;;;;;;;2.22;1.50;;;8.80;99.90;;;;;;5090575;28;20400;-73
2021/12/01 07:58:14;;;;;;;2.58;1.73;;;8.80;99.90;;;;;;5090258;28;20396;-73
2021/12/01 08:00:39;;;;;;;2.08;1.60;;;8.80;99.90;;;;;;5090043;28;20397;-74
2021/12/01 08:03:05;;;;;;;1.90;1.30;;;8.80;99.90;;;;;;5090319;28;20405;-74
2021/12/01 08:05:32;;;;;;;3.25;1.40;;;8.80;99.90;;;;;;5089723;28;20444;-74
2021/12/01 08:07:57;;;;;;;2.30;1.50;;;8.80;99.90;;;;;;5073630;28;20411;-74
2021/12/01 08:10:23;;;;;;;3.23;1.80;;;8.80;99.90;;;;;;5089948;28;20412;-74
2021/12/01 08:12:49;;;;;;;4.70;1.90;;;8.90;99.90;;;;;;5072978;28;20411;-74
2021/12/01 08:15:15;;;;;;;2.90;1.90;;;8.90;99.90;;;;;;5089887;28;20728;-73
2021/12/01 08:17:40;;;;;;;4.28;2.00;;;8.90;99.90;;;;;;5089871;28;20825;-74
2021/12/01 08:20:06;;;;;;;3.77;2.10;;;8.90;99.90;;;;;;5089818;28;20838;-74
2021/12/01 08:22:32;;;;;;;5.13;2.20;;;9.00;99.90;;;;;;5108174;28;20404;-74
2021/12/01 08:24:59;;;;;;;3.92;2.30;;;9.00;99.90;;;;;;5072656;28;20488;-73
2021/12/01 08:27:26;;;;;;;4.87;2.40;;;8.90;99.90;;;;;;5072893;28;20432;-73
2021/12/01 08:29:52;;;;;;;5.22;2.65;;;8.90;99.90;;;;;;5073293;28;20409;-74
2021/12/01 08:32:18;;;;;;;3.85;2.47;;;8.90;99.90;;;;;;5089902;28;20409;-74
2021/12/01 08:34:49;;;;;;;2.45;1.70;;;8.90;99.90;;;;;;5089744;28;20492;-74
2021/12/01 08:37:18;;;;;;;4.15;2.22;;;8.90;99.90;;;;;;5089893;28;20408;-75
2021/12/01 08:39:44;;;;;;;3.97;2.50;;;8.90;99.90;;;;;;5089599;28;20404;-73
2021/12/01 08:42:12;;;;;;;5.40;2.85;;;8.90;99.90;;;;;;5089329;28;20404;-73
2021/12/01 08:44:45;;;;;;;5.28;2.80;;;8.90;99.90;;;;;;5072918;28;20415;-73
2021/12/01 08:47:11;;;;;;;6.53;3.50;;;9.00;99.90;;;;;;5089494;28;20432;-73
2021/12/01 08:49:37;;;;;;;5.20;3.00;;;8.90;99.90;;;;;;5107527;28;20408;-74
2021/12/01 08:52:03;;;;;;;5.28;3.33;;;8.90;99.90;;;;;;5089575;28;20400;-74
2021/12/01 08:54:29;;;;;;;6.50;3.50;;;9.00;99.90;;;;;;5089158;28;20446;-73
2021/12/01 08:56:55;;;;;;;6.40;2.70;;;9.00;99.90;;;;;;5089748;28;20472;-74
2021/12/01 08:59:20;;;;;;;5.28;2.20;;;8.90;99.90;;;;;;5072929;28;20408;-73
2021/12/01 09:01:46;;;;;;;3.58;1.42;;;9.00;99.90;;;;;;5090320;28;20397;-74
2021/12/01 09:04:12;;;;;;;2.80;1.20;;;9.00;99.90;;;;;;5090189;28;20541;-74
2021/12/01 09:06:37;;;;;;;8.13;1.70;;;8.90;99.90;;;;;;5089609;28;20922;-74
2021/12/01 09:09:03;;;;;;;6.03;1.23;;;8.90;99.90;;;;;;5073603;28;20428;-74
2021/12/01 09:11:28;;;;;;;5.20;1.47;;;8.90;99.90;;;;;;5090011;28;20401;-74
2021/12/01 09:13:54;;;;;;;6.38;1.50;;;8.90;99.90;;;;;;5090076;28;20994;-74
2021/12/01 09:16:21;;;;;;;10.20;1.60;;;8.90;99.90;;;;;;5090235;28;20397;-74
2021/12/01 09:18:47;;;;;;;6.53;1.70;;;8.90;99.90;;;;;;5090088;28;20400;-74
2021/12/01 09:21:13;;;;;;;9.90;1.40;;;8.90;99.90;;;;;;5090247;28;20411;-74
2021/12/01 09:23:38;;;;;;;6.82;1.38;;;8.90;99.90;;;;;;5090148;28;20979;-74
2021/12/01 09:26:04;;;;;;;8.77;1.23;;;8.90;99.90;;;;;;5072740;28;20494;-74
2021/12/01 09:28:30;;;;;;;8.10;1.10;;;8.90;99.90;;;;;;5089912;28;20423;-73
2021/12/01 09:30:57;;;;;;;6.37;0.97;;;8.90;99.90;;;;;;5090379;28;20400;-74
2021/12/01 09:33:23;;;;;;;8.15;1.17;;;8.90;99.90;;;;;;5090081;28;20415;-74
2021/12/01 09:35:51;;;;;;;10.87;1.40;;;8.80;99.90;;;;;;5089759;28;20490;-74
2021/12/01 09:38:18;;;;;;;8.30;1.05;;;8.80;99.90;;;;;;5090014;28;20500;-74
2021/12/01 09:40:47;;;;;;;6.93;1.33;;;8.80;99.90;;;;;;5089694;28;20411;-75
2021/12/01 09:43:15;;;;;;;6.65;1.15;;;8.80;99.90;;;;;;5073158;28;20560;-74
2021/12/01 09:45:41;;;;;;;8.23;1.20;;;8.80;99.90;;;;;;5089492;28;20424;-74
2021/12/01 09:48:07;;;;;;;7.50;1.00;;;8.80;99.90;;;;;;5090030;28;20396;-75
2021/12/01 09:50:33;;;;;;;7.13;0.90;;;8.70;99.90;;;;;;5086125;28;20471;-75
2021/12/01 09:52:59;;;;;;;11.65;1.35;;;8.80;99.90;;;;;;5088089;28;20456;-74
2021/12/01 09:55:24;;;;;;;7.32;1.35;;;8.80;99.90;;;;;;5090386;28;20405;-75
2021/12/01 09:58:00;;;;;;;10.00;1.30;;;8.80;99.90;;;;;;5073407;28;20399;-74
2021/12/01 10:00:27;;;;;;;10.15;1.30;;;8.80;99.90;;;;;;5090323;28;20402;-74
2021/12/01 10:02:52;;;;;;;10.70;1.38;;;8.90;99.90;;;;;;5090052;28;20409;-74
2021/12/01 10:05:49;;;;;;;10.07;1.57;;;8.80;99.90;;;;;;5089627;28;20394;-75
2021/12/01 10:08:23;;;;;;;9.80;1.20;;;8.90;99.90;;;;;;5090087;28;20413;-74
2021/12/01 10:10:50;;;;;;;7.38;1.15;;;8.90;99.90;;;;;;5089749;28;20449;-74
2021/12/01 10:13:28;;;;;;;8.98;1.30;;;9.00;99.90;;;;;;5089720;28;20402;-75
2021/12/01 10:15:56;;;;;;;7.00;1.23;;;9.00;99.90;;;;;;5072987;28;20403;-75
2021/12/01 10:18:22;;;;;;;7.38;1.15;;;9.00;99.90;;;;;;5090391;28;20417;-74
2021/12/01 10:21:04;;;;;;;8.38;1.13;;;9.10;99.90;;;;;;5089409;28;20463;-75
2021/12/01 10:23:29;;;;;;;6.67;1.03;;;9.10;99.90;;;;;;5072400;28;20961;-74
2021/12/01 10:25:56;;;;;;;10.85;1.40;;;9.10;99.90;;;;;;5089132;28;20453;-74
2021/12/01 10:28:34;;;;;;;11.32;1.52;;;9.10;99.90;;;;;;5089595;28;20414;-75
2021/12/01 10:31:00;;;;;;;12.85;2.00;;;9.20;99.90;;;;;;5089061;28;21010;-74
2021/12/01 10:33:28;;;;;;;12.37;2.00;;;9.30;99.90;;;;;;5089516;28;20418;-75
2021/12/01 10:35:54;;;;;;;11.70;1.80;;;9.30;99.90;;;;;;5089573;28;20406;-74
2021/12/01 10:38:32;;;;;;;12.00;2.10;;;9.30;99.90;;;;;;5089779;28;20409;-75
2021/12/01 10:41:07;;;;;;;12.07;1.70;;;9.40;99.90;;;;;;5089692;28;20432;-75
2021/12/01 10:43:43;;;;;;;9.88;1.80;;;9.30;99.90;;;;;;5088657;28;20406;-74
2021/12/01 10:46:14;;;;;;;11.43;2.17;;;9.40;99.90;;;;;;5089611;28;20827;-74
2021/12/01 10:48:40;;;;;;;10.68;1.63;;;9.50;99.90;;;;;;5092499;28;20404;-74
2021/12/01 10:51:09;;;;;;;9.98;1.58;;;9.50;99.90;;;;;;5093253;28;21318;-74
2021/12/01 10:53:34;;;;;;;11.55;1.50;;;9.40;99.90;;;;;;5092955;28;20412;-74
2021/12/01 10:56:04;;;;;;;10.32;1.58;;;9.60;99.90;;;;;;5092835;28;20928;-75
2021/12/01 10:58:36;;;;;;;8.30;1.55;;;9.60;99.90;;;;;;5092092;28;20758;-75
2021/12/01 11:01:03;;;;;;;9.80;1.63;;;9.60;99.90;;;;;;5092869;28;20465;-75
2021/12/01 11:03:31;;;;;;;11.93;1.67;;;9.60;99.90;;;;;;5092118;28;20445;-75
2021/12/01 11:06:10;;;;;;;11.57;1.90;;;9.60;99.90;;;;;;5092121;28;20432;-74
2021/12/01 11:08:39;;;;;;;11.10;1.80;;;9.90;99.90;;;;;;5092478;28;20461;-75
2021/12/01 11:11:12;;;;;;;11.98;2.00;;;9.80;99.90;;;;;;5092060;28;20469;-75
2021/12/01 11:13:43;;;;;;;14.38;2.40;;;9.70;99.90;;;;;;5092434;28;20412;-75
2021/12/01 11:16:11;;;;;;;10.77;2.10;;;9.60;99.90;;;;;;5092442;28;21483;-74
2021/12/01 11:18:39;;;;;;;11.05;2.17;;;9.60;99.90;;;;;;5075335;28;20408;-75
2021/12/01 11:21:19;;;;;;;12.57;2.00;;;9.50;99.90;;;;;;5075334;28;20495;-75
2021/12/01 11:23:56;;;;;;;14.80;2.20;;;9.50;99.90;;;;;;5091747;28;20484;-75
2021/12/01 11:26:26;;;;;;;10.88;2.60;;;9.50;99.90;;;;;;5091898;28;20460;-75
2021/12/01 11:28:54;;;;;;;15.30;2.15;;;9.40;99.90;;;;;;5092191;28;20458;-74
2021/12/01 11:31:34;;;;;;;11.40;1.70;;;9.40;99.90;;;;;;5091621;28;20416;-75
2021/12/01 11:34:04;;;;;;;14.20;2.47;;;9.40;99.90;;;;;;5091913;28;20435;-75
2021/12/01 11:36:37;;;;;;;12.80;2.38;;;9.20;99.90;;;;;;5076045;28;20413;-75
2021/12/01 11:39:06;;;;;;;13.95;2.78;;;9.20;99.90;;;;;;5092682;28;20404;-75
2021/12/01 11:41:34;;;;;;;14.32;2.97;;;9.10;99.90;;;;;;5091561;28;20443;-74
2021/12/01 11:44:02;;;;;;;14.27;2.50;;;9.10;99.90;;;;;;5091779;28;20901;-75
2021/12/01 11:46:30;;;;;;;;;;;9.10;99.90;;;;;;5092872;28;20363;-75
2021/12/01 11:48:57;;;;;;;;;;;9.00;99.90;;;;;;5090381;28;20331;-75
2021/12/01 11:51:24;;;;;;;;;;;8.90;99.90;;;;;;5090067;28;19919;-75
2021/12/01 11:53:58;;;;;;;;;;;8.80;99.90;;;;;;5089639;28;19924;-74
2021/12/01 11:56:29;;;;;;;;;;;8.80;99.90;;;;;;5089270;28;19920;-75
2021/12/01 11:58:59;;;;;;;;;;;8.80;99.90;;;;;;5089760;28;20003;-75
2021/12/01 12:01:25;;;;;;;;;;;8.70;99.90;;;;;;5089670;28;20309;-75
2021/12/01 12:03:54;;;;;;;;;;;8.70;99.90;;;;;;5089739;28;19923;-74
2021/12/01 12:06:20;;;;;;;;;;;8.60;99.90;;;;;;5088366;28;20378;-74
2021/12/01 12:08:55;;;;;;;;;;;8.60;99.90;;;;;;5089046;28;20000;-75
2021/12/01 12:11:36;;;;;;;;;;;8.60;99.90;;;;;;5089409;28;19920;-75
2021/12/01 12:14:06;;;;;;;;;;;8.60;99.90;;;;;;5089556;28;19926;-75
2021/12/01 12:16:32;;;;;;;;;;;8.50;99.90;;;;;;5071937;28;19920;-74
2021/12/01 12:18:59;;;;;;;;;;;8.50;99.90;;;;;;5089581;28;19989;-74
2021/12/01 12:24:01;;;;;;;;;;;8.40;99.90;;;;;;5088684;28;19930;-74
2021/12/01 12:26:40;;;;;;;;;;;8.40;99.90;;;;;;5088068;28;19919;-74
2021/12/01 12:29:13;;;;;;;;;;;8.40;99.90;;;;;;5088907;28;20283;-75
2021/12/01 12:31:39;;;;;;;;;;;8.40;99.90;;;;;;5088182;28;19966;-74
2021/12/01 12:34:09;;;;;;;;;;;8.30;99.90;;;;;;5088722;28;20487;-74
2021/12/01 12:36:40;;;;;;;;;;;8.30;99.90;;;;;;5089500;28;20385;-74
2021/12/01 12:39:11;;;;;;;;;;;8.30;99.90;;;;;;5089453;28;19981;-74
2021/12/01 12:42:05;;;;;;;;;;;8.30;99.90;;;;;;5088103;28;20336;-74
2021/12/01 12:44:30;;;;;;;;;;;8.20;99.90;;;;;;5088228;28;19924;-74
2021/12/01 12:47:04;;;;;;;;;;;8.20;99.90;;;;;;5088074;28;20279;-74
2021/12/01 12:49:49;;;;;;;;;;;8.20;99.90;;;;;;5099816;28;20632;-74
2021/12/01 12:52:27;;;;;;;;;;;8.10;99.90;;;;;;5091271;28;19923;-74
2021/12/01 12:54:53;;;;;;;;;;;8.20;99.90;;;;;;5090885;28;20294;-74
2021/12/01 12:57:19;;;;;;;;;;;8.20;99.90;;;;;;5091247;28;19919;-74
2021/12/01 12:59:45;;;;;;;;;;;8.20;99.90;;;;;;5091689;28;20296;-74
2021/12/01 13:02:10;;;;;;;;;;;8.20;99.90;;;;;;5091052;28;20266;-74
2021/12/01 13:04:51;;;;;;;;;;;8.10;99.90;;;;;;5091000;28;19969;-74
2021/12/01 13:07:30;;;;;;;;;;;8.00;99.90;;;;;;5091056;28;20373;-74
2021/12/01 13:10:05;;;;;;;;;;;8.00;99.90;;;;;;5091446;28;20276;-74
2021/12/01 13:12:42;;;;;;;;;;;7.90;99.90;;;;;;5090590;28;20381;-74
2021/12/01 13:15:07;;;;;;;;;;;7.90;99.90;;;;;;5074584;28;20316;-74